Time;durP1;ratioP1;P1;durP2;ratioP2;P2;SDS_P1;SDS_P2;PMS_P1;PMS_P2;Temp;Humidity;BMP_temperature;BMP_pressure;BME280_temperature;BME280_humidity;BME280_pressure;Samples;Min_cycle;Max_cycle;Signal;HPM_P1;HPM_P2
2021/07/26 00:01:27;;;;;;;32.08;23.17;;;14.00;56.10;;;;;;5085268;28;20020;-65
2021/07/26 00:03:54;;;;;;;33.35;24.35;;;14.00;56.30;;;;;;5077287;28;20044;-65
2021/07/26 00:06:20;;;;;;;36.20;25.05;;;14.00;56.80;;;;;;5082582;28;20119;-65
2021/07/26 00:08:47;;;;;;;35.20;23.90;;;14.00;56.80;;;;;;5081431;28;20029;-66
2021/07/26 00:11:13;;;;;;;34.92;24.52;;;14.00;57.10;;;;;;5082928;28;20557;-65
2021/07/26 00:13:40;;;;;;;37.17;24.98;;;14.00;56.90;;;;;;5082831;28;20024;-67
2021/07/26 00:16:07;;;;;;;35.85;25.20;;;14.00;57.00;;;;;;5085628;28;20047;-65
2021/07/26 00:18:34;;;;;;;38.53;26.83;;;14.00;57.00;;;;;;5082236;28;20025;-66
2021/07/26 00:21:01;;;;;;;38.80;29.23;;;13.90;56.90;;;;;;5083996;28;20687;-68
2021/07/26 00:23:28;;;;;;;37.30;26.40;;;13.90;57.20;;;;;;5080866;28;20481;-66
2021/07/26 00:25:55;;;;;;;37.90;27.20;;;14.00;57.30;;;;;;5081909;28;20081;-66
2021/07/26 00:28:22;;;;;;;38.20;27.63;;;14.00;57.20;;;;;;5085280;28;20031;-66
2021/07/26 00:30:48;;;;;;;40.28;29.15;;;14.00;57.30;;;;;;5076183;28;20013;-66
2021/07/26 00:34:15;;;;;;;36.58;27.13;;;14.00;57.30;;;;;;5085048;28;20032;-67
2021/07/26 00:36:44;;;;;;;32.30;23.60;;;14.00;57.20;;;;;;5080265;28;20382;-66
2021/07/26 00:39:12;;;;;;;30.77;22.95;;;14.00;56.50;;;;;;5080584;28;20025;-66
2021/07/26 00:41:39;;;;;;;34.13;22.88;;;14.00;56.20;;;;;;5079737;28;20020;-66
2021/07/26 00:44:06;;;;;;;15.32;12.65;;;14.10;56.40;;;;;;5083275;28;20032;-65
2021/07/26 00:46:33;;;;;;;16.33;12.15;;;14.10;53.40;;;;;;5078934;28;20028;-66
2021/07/26 00:49:04;;;;;;;8.70;4.88;;;14.20;53.30;;;;;;5081023;28;20024;-67
2021/07/26 00:51:31;;;;;;;6.18;3.85;;;14.30;49.40;;;;;;5079329;28;20116;-66
2021/07/26 00:53:59;;;;;;;5.70;3.28;;;14.50;46.90;;;;;;5082602;28;20021;-65
2021/07/26 00:56:27;;;;;;;4.63;2.83;;;14.70;46.70;;;;;;5078633;28;20016;-66
2021/07/26 00:58:53;;;;;;;4.80;2.63;;;14.90;45.20;;;;;;5081653;28;20020;-66
2021/07/26 01:01:20;;;;;;;4.68;2.78;;;15.10;44.50;;;;;;5081394;28;20028;-66
2021/07/26 01:03:46;;;;;;;2.45;2.25;;;15.20;44.20;;;;;;5079156;28;20494;-68
2021/07/26 01:06:13;;;;;;;4.88;3.17;;;15.40;43.10;;;;;;5081865;28;20020;-68
2021/07/26 01:08:40;;;;;;;4.53;3.05;;;15.50;43.10;;;;;;5079244;28;20031;-69
2021/07/26 01:11:07;;;;;;;8.25;2.85;;;15.60;42.00;;;;;;5083457;28;20644;-67
2021/07/26 01:13:35;;;;;;;5.32;2.47;;;15.70;42.10;;;;;;5082215;28;20031;-69
2021/07/26 01:16:03;;;;;;;8.93;2.60;;;15.80;41.10;;;;;;5085037;28;20479;-66
2021/07/26 01:18:33;;;;;;;6.93;2.47;;;16.00;40.70;;;;;;5062419;28;20036;-66
2021/07/26 01:21:05;;;;;;;7.60;2.30;;;16.10;40.00;;;;;;5084661;28;20115;-67
2021/07/26 01:23:36;;;;;;;4.47;3.33;;;16.30;39.60;;;;;;5085504;28;20494;-66
2021/07/26 01:26:04;;;;;;;4.18;2.47;;;16.30;39.90;;;;;;5079766;28;20420;-67
2021/07/26 01:28:37;;;;;;;2.80;2.17;;;16.40;39.00;;;;;;5081235;28;20028;-67
2021/07/26 01:31:04;;;;;;;4.43;3.15;;;16.50;39.00;;;;;;5079613;28;20538;-67
2021/07/26 01:33:32;;;;;;;6.65;2.15;;;16.60;38.40;;;;;;5076423;28;20111;-68
2021/07/26 01:35:59;;;;;;;6.88;2.35;;;16.60;38.50;;;;;;5080641;28;20020;-67
2021/07/26 01:38:26;;;;;;;5.82;2.60;;;16.80;38.50;;;;;;5084528;28;20024;-68
2021/07/26 01:41:01;;;;;;;4.13;2.10;;;16.80;38.50;;;;;;5077583;28;20025;-68
2021/07/26 01:43:39;;;;;;;3.08;2.35;;;16.90;38.10;;;;;;5076521;28;20412;-66
2021/07/26 01:46:37;;;;;;;7.82;2.33;;;16.90;37.90;;;;;;5080129;28;20025;-68
2021/07/26 01:49:29;;;;;;;7.82;2.63;;;16.90;38.20;;;;;;5079814;28;20038;-69
2021/07/26 01:51:56;;;;;;;3.05;1.95;;;17.00;38.60;;;;;;5080601;28;20024;-69
2021/07/26 01:54:23;;;;;;;6.55;2.55;;;16.90;38.10;;;;;;5079956;28;20024;-70
2021/07/26 01:56:50;;;;;;;2.53;2.28;;;16.90;38.00;;;;;;5075923;28;20082;-66
2021/07/26 01:59:16;;;;;;;3.08;2.42;;;16.90;38.40;;;;;;5079401;28;20039;-66
2021/07/26 02:01:43;;;;;;;3.83;2.53;;;17.00;37.80;;;;;;5083898;28;20024;-67
2021/07/26 02:04:09;;;;;;;4.13;2.55;;;17.00;38.50;;;;;;5080642;28;20039;-66
2021/07/26 02:06:36;;;;;;;3.13;2.10;;;17.00;38.10;;;;;;5078226;28;20051;-67
2021/07/26 02:09:02;;;;;;;5.22;2.40;;;17.00;37.90;;;;;;5078195;28;20027;-72
2021/07/26 02:11:29;;;;;;;6.05;3.38;;;17.00;38.10;;;;;;5078699;28;20035;-70
2021/07/26 02:13:55;;;;;;;2.72;2.08;;;17.10;38.10;;;;;;5079140;28;20486;-69
2021/07/26 02:16:21;;;;;;;5.22;2.40;;;17.10;37.90;;;;;;5081017;28;20024;-72
2021/07/26 02:18:48;;;;;;;4.95;2.80;;;17.10;38.10;;;;;;5078773;28;20095;-72
2021/07/26 02:21:15;;;;;;;4.03;2.83;;;17.10;38.20;;;;;;5077734;28;20447;-72
2021/07/26 02:23:41;;;;;;;2.42;2.22;;;17.10;37.80;;;;;;5081834;28;20478;-72
2021/07/26 02:26:08;;;;;;;4.35;2.90;;;17.10;37.60;;;;;;5079923;28;20382;-71
2021/07/26 02:28:34;;;;;;;6.15;2.55;;;17.20;37.60;;;;;;5083575;28;20100;-70
2021/07/26 02:31:01;;;;;;;5.30;2.38;;;17.20;37.80;;;;;;5076771;28;20032;-72
2021/07/26 02:33:28;;;;;;;5.25;2.40;;;17.20;37.60;;;;;;5077956;28;20025;-69
2021/07/26 02:35:54;;;;;;;3.72;2.22;;;17.20;37.70;;;;;;5082114;28;20487;-73
2021/07/26 02:38:21;;;;;;;5.40;2.75;;;17.20;37.50;;;;;;5078678;28;20028;-73
2021/07/26 02:40:47;;;;;;;3.08;2.47;;;17.20;37.70;;;;;;5078933;28;20028;-73
2021/07/26 02:43:14;;;;;;;5.32;2.28;;;17.20;37.30;;;;;;5077953;28;20333;-72
2021/07/26 02:45:40;;;;;;;5.85;2.33;;;17.20;36.90;;;;;;5080680;28;20089;-70
2021/07/26 02:48:08;;;;;;;3.85;2.65;;;17.30;36.70;;;;;;5079665;28;20149;-71
2021/07/26 02:50:34;;;;;;;3.67;2.40;;;17.30;36.50;;;;;;5082305;28;20028;-67
2021/07/26 02:53:01;;;;;;;2.03;1.77;;;17.40;36.60;;;;;;5082140;28;20107;-67
2021/07/26 02:55:29;;;;;;;6.25;2.53;;;17.40;36.30;;;;;;5078763;28;20023;-71
2021/07/26 02:57:57;;;;;;;5.05;1.92;;;17.50;36.10;;;;;;5080045;28;20822;-72
2021/07/26 03:00:24;;;;;;;5.75;2.85;;;17.50;36.10;;;;;;5078010;28;20031;-68
2021/07/26 03:02:51;;;;;;;2.92;2.50;;;17.50;36.20;;;;;;5081191;28;20497;-71
2021/07/26 03:05:17;;;;;;;4.82;2.42;;;17.50;35.70;;;;;;5081195;28;20029;-67
2021/07/26 03:07:44;;;;;;;3.72;2.15;;;17.50;36.30;;;;;;5077990;28;20029;-68
2021/07/26 03:10:11;;;;;;;4.00;2.40;;;17.50;35.90;;;;;;5073641;28;20035;-67
2021/07/26 03:12:37;;;;;;;2.92;1.92;;;17.60;36.60;;;;;;5078691;28;20016;-68
2021/07/26 03:15:05;;;;;;;5.05;2.92;;;17.60;36.60;;;;;;5084069;28;20048;-69
2021/07/26 03:17:31;;;;;;;4.20;2.17;;;17.60;36.10;;;;;;5082772;28;20035;-68
2021/07/26 03:19:58;;;;;;;2.95;2.33;;;17.60;35.80;;;;;;5085322;28;20024;-66
2021/07/26 03:22:47;;;;;;;2.80;2.00;;;17.60;35.80;;;;;;5067380;28;20047;-65
2021/07/26 03:25:15;;;;;;;303.38;239.02;;;17.60;35.60;;;;;;5083773;28;20040;-66
2021/07/26 03:27:42;;;;;;;40.58;29.95;;;17.70;36.00;;;;;;5083094;28;20103;-68
2021/07/26 03:30:09;;;;;;;16.00;6.97;;;17.70;35.70;;;;;;5082846;28;20644;-68
2021/07/26 03:32:35;;;;;;;5.30;3.65;;;17.60;36.10;;;;;;5084783;28;20077;-66
2021/07/26 03:35:02;;;;;;;6.43;3.42;;;17.60;36.00;;;;;;5079516;28;20039;-71
2021/07/26 03:37:29;;;;;;;3.88;2.40;;;17.60;36.10;;;;;;5080961;28;20031;-70
2021/07/26 03:39:55;;;;;;;2.85;2.10;;;17.60;36.10;;;;;;5081875;28;20425;-72
2021/07/26 03:42:22;;;;;;;4.78;2.35;;;17.60;36.50;;;;;;5065495;28;20479;-73
2021/07/26 03:44:48;;;;;;;4.70;2.47;;;17.50;36.10;;;;;;5078450;28;20507;-73
2021/07/26 03:47:15;;;;;;;3.67;2.40;;;17.50;36.00;;;;;;5082318;28;20123;-71
2021/07/26 03:49:41;;;;;;;5.20;2.13;;;17.50;36.50;;;;;;5087328;28;20020;-73
2021/07/26 03:52:08;;;;;;;5.35;2.50;;;17.50;35.70;;;;;;5083841;28;20023;-70
2021/07/26 03:54:34;;;;;;;3.70;2.15;;;17.60;35.40;;;;;;5082387;28;20458;-72
2021/07/26 03:57:00;;;;;;;4.50;2.28;;;17.60;35.40;;;;;;5080123;28;20031;-75
2021/07/26 03:59:27;;;;;;;2.28;1.90;;;17.70;35.70;;;;;;5086586;28;20050;-70
2021/07/26 04:01:57;;;;;;;5.20;2.72;;;17.60;35.60;;;;;;5081003;28;20031;-69
2021/07/26 04:04:24;;;;;;;4.50;3.15;;;17.70;36.00;;;;;;5077900;28;20095;-71
2021/07/26 04:06:55;;;;;;;13.35;11.63;;;17.70;35.80;;;;;;5080175;28;20052;-71
2021/07/26 04:09:24;;;;;;;58.45;46.40;;;17.70;35.50;;;;;;5080910;28;20025;-69
2021/07/26 04:11:59;;;;;;;10.80;8.18;;;17.80;36.00;;;;;;5082164;28;20020;-71
2021/07/26 04:14:28;;;;;;;4.35;2.88;;;17.70;36.10;;;;;;5086201;28;20570;-76
2021/07/26 04:16:55;;;;;;;5.10;2.75;;;17.70;35.80;;;;;;5077710;28;20071;-71
2021/07/26 04:19:21;;;;;;;5.50;2.70;;;17.70;36.00;;;;;;5079853;28;20079;-70
2021/07/26 04:21:48;;;;;;;105.68;88.15;;;17.70;35.70;;;;;;5079262;28;20366;-68
2021/07/26 04:24:14;;;;;;;41.72;30.02;;;17.60;36.20;;;;;;5079760;28;20036;-71
2021/07/26 04:26:42;;;;;;;9.68;5.30;;;17.70;36.30;;;;;;5080935;28;20096;-70
2021/07/26 04:29:08;;;;;;;2.95;2.50;;;17.60;36.20;;;;;;5079681;28;20051;-69
2021/07/26 04:31:35;;;;;;;5.88;3.17;;;17.60;36.60;;;;;;5065280;28;20367;-70
2021/07/26 04:34:01;;;;;;;5.82;3.00;;;17.50;36.80;;;;;;5080430;28;20021;-68
2021/07/26 04:36:28;;;;;;;2.85;2.38;;;17.50;37.20;;;;;;5082953;28;20100;-70
2021/07/26 04:38:54;;;;;;;11.05;3.80;;;17.40;37.00;;;;;;5059277;28;20093;-70
2021/07/26 04:41:21;;;;;;;7.03;3.65;;;17.40;37.20;;;;;;5081806;28;20042;-69
2021/07/26 04:43:47;;;;;;;4.03;3.60;;;17.40;38.30;;;;;;5076549;28;20028;-71
2021/07/26 04:46:14;;;;;;;5.40;3.03;;;17.30;37.60;;;;;;5083426;28;20412;-70
2021/07/26 04:48:40;;;;;;;7.20;2.85;;;17.30;38.60;;;;;;5077381;28;20409;-70
2021/07/26 04:51:07;;;;;;;5.43;2.80;;;17.30;37.80;;;;;;5083504;28;20005;-71
2021/07/26 04:53:34;;;;;;;6.00;3.05;;;17.30;38.80;;;;;;5062806;28;20485;-68
2021/07/26 04:56:00;;;;;;;10.98;3.58;;;17.30;38.90;;;;;;5080917;28;20281;-67
2021/07/26 04:58:27;;;;;;;5.40;3.40;;;17.30;39.00;;;;;;5081736;28;20017;-68
2021/07/26 05:00:53;;;;;;;5.57;2.75;;;17.20;38.00;;;;;;5075041;28;20028;-67
2021/07/26 05:03:20;;;;;;;6.28;3.30;;;17.30;37.70;;;;;;5074393;28;20127;-67
2021/07/26 05:05:46;;;;;;;3.38;2.70;;;17.20;37.90;;;;;;5076685;28;20024;-67
2021/07/26 05:08:13;;;;;;;3.58;2.63;;;17.20;37.90;;;;;;5079309;28;20043;-67
2021/07/26 05:10:40;;;;;;;4.63;2.47;;;17.20;37.70;;;;;;5074501;28;20044;-68
2021/07/26 05:13:06;;;;;;;3.50;2.25;;;17.20;38.10;;;;;;5079212;28;20096;-67
2021/07/26 05:15:33;;;;;;;5.70;2.28;;;17.20;38.00;;;;;;5080355;28;20027;-68
2021/07/26 05:17:59;;;;;;;4.43;2.95;;;17.20;38.10;;;;;;5083112;28;20020;-67
2021/07/26 05:20:25;;;;;;;4.53;3.22;;;17.20;38.40;;;;;;5081195;28;20111;-68
2021/07/26 05:22:53;;;;;;;4.43;2.28;;;17.20;38.60;;;;;;5077250;28;20032;-67
2021/07/26 05:25:19;;;;;;;4.00;3.45;;;17.20;38.10;;;;;;5082993;28;20028;-68
2021/07/26 05:27:46;;;;;;;7.32;2.95;;;17.20;37.90;;;;;;5085073;28;20519;-67
2021/07/26 05:30:13;;;;;;;7.75;3.95;;;17.20;37.90;;;;;;5078745;28;20032;-67
2021/07/26 05:32:40;;;;;;;3.22;3.00;;;17.20;38.40;;;;;;5078624;28;20032;-68
2021/07/26 05:35:07;;;;;;;10.60;3.53;;;17.20;38.60;;;;;;5076649;28;20032;-68
2021/07/26 05:37:33;;;;;;;7.72;2.38;;;17.20;38.10;;;;;;5072685;28;20099;-68
2021/07/26 05:40:00;;;;;;;4.57;2.40;;;17.20;38.40;;;;;;5081339;28;20024;-67
2021/07/26 05:42:26;;;;;;;8.73;2.60;;;17.20;39.00;;;;;;5076943;28;20027;-67
2021/07/26 05:44:55;;;;;;;5.10;2.85;;;17.20;38.50;;;;;;5080651;28;20055;-68
2021/07/26 05:47:21;;;;;;;4.88;2.30;;;17.20;38.40;;;;;;5081285;28;20501;-67
2021/07/26 05:49:48;;;;;;;5.32;2.30;;;17.20;38.40;;;;;;5083699;28;20032;-67
2021/07/26 05:52:16;;;;;;;6.47;2.40;;;17.20;38.10;;;;;;5076345;28;20028;-67
2021/07/26 05:54:43;;;;;;;6.93;2.80;;;17.20;38.30;;;;;;5079665;28;20044;-67
2021/07/26 05:57:14;;;;;;;4.57;2.92;;;17.20;38.20;;;;;;5081284;28;20032;-68
2021/07/26 05:59:41;;;;;;;9.05;2.80;;;17.20;38.20;;;;;;5072503;28;20048;-67
2021/07/26 06:02:07;;;;;;;9.32;3.15;;;17.20;38.50;;;;;;5083979;28;20020;-68
2021/07/26 06:04:34;;;;;;;5.60;3.40;;;17.10;38.90;;;;;;5078882;28;20057;-68
2021/07/26 06:07:00;;;;;;;4.88;2.40;;;17.20;38.80;;;;;;5075199;28;20064;-68
2021/07/26 06:09:27;;;;;;;2.92;2.35;;;17.20;39.00;;;;;;5078295;28;20045;-68
2021/07/26 06:11:54;;;;;;;3.90;2.67;;;17.10;39.10;;;;;;5085067;28;20478;-68
2021/07/26 06:14:22;;;;;;;2.80;2.33;;;17.10;39.60;;;;;;5077391;28;20024;-68
2021/07/26 06:16:53;;;;;;;4.50;2.47;;;17.10;39.60;;;;;;5073132;28;20371;-68
2021/07/26 06:19:21;;;;;;;6.60;3.17;;;17.10;39.60;;;;;;5075384;28;20031;-67
2021/07/26 06:21:54;;;;;;;4.18;2.80;;;17.10;39.60;;;;;;5083015;28;20016;-67
2021/07/26 06:24:21;;;;;;;5.78;2.67;;;17.00;39.70;;;;;;5078076;28;20047;-66
2021/07/26 06:26:49;;;;;;;2.78;2.00;;;17.00;40.30;;;;;;5081580;28;20009;-68
2021/07/26 06:29:16;;;;;;;4.55;2.00;;;17.00;39.70;;;;;;5060896;28;20480;-68
2021/07/26 06:31:43;;;;;;;3.90;2.67;;;17.10;39.80;;;;;;5080820;28;20413;-67
2021/07/26 06:34:10;;;;;;;4.97;2.92;;;17.10;39.90;;;;;;5075644;28;20147;-67
2021/07/26 06:36:39;;;;;;;5.88;2.90;;;17.10;39.80;;;;;;5080056;28;20153;-66
2021/07/26 06:39:06;;;;;;;3.70;3.30;;;17.20;40.10;;;;;;5061287;28;20401;-67
2021/07/26 06:41:33;;;;;;;7.85;2.67;;;17.20;40.10;;;;;;5082924;28;20471;-68
2021/07/26 06:44:00;;;;;;;2.50;2.20;;;17.20;40.10;;;;;;5082576;28;20082;-67
2021/07/26 06:46:26;;;;;;;6.70;3.20;;;17.20;40.00;;;;;;5073017;28;20103;-67
2021/07/26 06:48:53;;;;;;;4.70;2.60;;;17.20;40.20;;;;;;5078380;28;20027;-68
2021/07/26 06:51:21;;;;;;;7.05;3.50;;;17.30;40.30;;;;;;5075819;28;20028;-67
2021/07/26 06:53:48;;;;;;;4.65;2.30;;;17.30;40.20;;;;;;5083214;28;20017;-67
2021/07/26 06:56:15;;;;;;;6.07;2.90;;;17.30;40.20;;;;;;5079032;28;20020;-67
2021/07/26 06:58:41;;;;;;;12.73;3.30;;;17.30;40.30;;;;;;5084761;28;20074;-66
2021/07/26 07:01:11;;;;;;;10.23;2.95;;;17.40;39.90;;;;;;5079916;28;20467;-66
2021/07/26 07:03:38;;;;;;;8.32;3.88;;;17.50;40.20;;;;;;5083446;28;20449;-66
2021/07/26 07:06:14;;;;;;;3.17;2.70;;;17.60;39.70;;;;;;5079079;28;20026;-66
2021/07/26 07:08:40;;;;;;;;;;;17.60;39.60;;;;;;5084345;28;20060;-66
2021/07/26 07:11:07;;;;;;;4.25;2.45;;;17.70;39.50;;;;;;5085868;28;20293;-67
2021/07/26 07:13:35;;;;;;;3.40;2.90;;;17.80;39.30;;;;;;5065182;28;20025;-67
2021/07/26 07:16:02;;;;;;;6.07;2.42;;;17.90;39.50;;;;;;5083221;28;20057;-67
2021/07/26 07:18:29;;;;;;;4.00;2.60;;;17.90;39.40;;;;;;5077930;28;20020;-66
2021/07/26 07:20:55;;;;;;;4.72;3.05;;;17.90;39.40;;;;;;5079385;28;20490;-66
2021/07/26 07:23:22;;;;;;;7.28;2.58;;;18.00;39.10;;;;;;5082836;28;20098;-66
2021/07/26 07:25:48;;;;;;;7.18;3.60;;;18.10;39.30;;;;;;5080767;28;20039;-65
2021/07/26 07:28:15;;;;;;;7.95;2.78;;;18.10;39.20;;;;;;5079303;28;20431;-67
2021/07/26 07:30:41;;;;;;;9.20;3.67;;;18.20;39.40;;;;;;5076841;28;20020;-66
2021/07/26 07:33:07;;;;;;;4.85;2.33;;;18.20;39.40;;;;;;5078816;28;20510;-66
2021/07/26 07:35:34;;;;;;;4.95;2.20;;;18.30;39.30;;;;;;5085050;28;20103;-66
2021/07/26 07:38:01;;;;;;;5.20;2.67;;;18.40;39.40;;;;;;5077933;28;20025;-67
2021/07/26 07:40:28;;;;;;;5.10;3.00;;;18.40;38.70;;;;;;5088731;28;20077;-66
2021/07/26 07:42:54;;;;;;;8.25;3.47;;;18.50;39.00;;;;;;5081391;28;20552;-66
2021/07/26 07:45:21;;;;;;;3.58;2.50;;;18.50;38.80;;;;;;5076581;28;20121;-67
2021/07/26 07:47:47;;;;;;;4.93;2.35;;;18.60;39.50;;;;;;5081996;28;20032;-66
2021/07/26 07:50:14;;;;;;;5.00;2.20;;;18.60;39.10;;;;;;5084918;28;20024;-66
2021/07/26 07:52:41;;;;;;;7.65;2.35;;;18.60;39.00;;;;;;5079711;28;20420;-67
2021/07/26 07:55:08;;;;;;;4.70;2.13;;;18.70;39.40;;;;;;5075471;28;20044;-67
2021/07/26 07:57:37;;;;;;;8.50;2.33;;;18.80;38.80;;;;;;5076605;28;20020;-66
2021/07/26 08:00:06;;;;;;;4.13;2.63;;;18.80;39.00;;;;;;5082886;28;20032;-67
2021/07/26 08:02:33;;;;;;;8.13;2.58;;;18.90;38.90;;;;;;5085535;28;20016;-66
2021/07/26 08:04:59;;;;;;;7.85;2.28;;;19.00;39.20;;;;;;5081112;28;20135;-67
2021/07/26 08:07:26;;;;;;;14.10;2.42;;;19.00;38.50;;;;;;5075493;28;20581;-66
2021/07/26 08:09:52;;;;;;;8.60;2.17;;;19.10;38.90;;;;;;5083937;28;20487;-66
2021/07/26 08:12:19;;;;;;;5.18;1.85;;;19.20;38.80;;;;;;5083589;28;20045;-66
2021/07/26 08:14:46;;;;;;;5.85;2.10;;;19.20;39.20;;;;;;5078246;28;20027;-66
2021/07/26 08:17:12;;;;;;;4.40;2.42;;;19.30;38.90;;;;;;5077927;28;20035;-67
2021/07/26 08:20:18;;;;;;;4.60;2.33;;;19.30;39.00;;;;;;5077708;28;20040;-66
2021/07/26 08:23:24;;;;;;;8.35;2.50;;;19.40;39.40;;;;;;5081695;28;20039;-66
2021/07/26 08:26:30;;;;;;;9.45;2.97;;;19.50;39.20;;;;;;5084489;28;20340;-67
2021/07/26 08:29:37;;;;;;;8.43;2.67;;;19.60;39.30;;;;;;5078303;28;20371;-66
2021/07/26 08:32:43;;;;;;;8.63;2.88;;;19.70;39.30;;;;;;5081861;28;20027;-67
2021/07/26 08:35:49;;;;;;;4.45;2.70;;;19.70;39.80;;;;;;5081088;28;20024;-66
2021/07/26 08:38:55;;;;;;;8.55;2.50;;;19.80;39.90;;;;;;5078245;28;20554;-67
2021/07/26 08:42:01;;;;;;;6.20;2.58;;;19.80;40.00;;;;;;5074292;28;20047;-67
2021/07/26 08:45:08;;;;;;;7.30;2.55;;;19.90;40.10;;;;;;5082456;28;20051;-66
2021/07/26 08:48:15;;;;;;;5.20;2.53;;;20.00;40.40;;;;;;5084558;28;20021;-68
2021/07/26 08:51:21;;;;;;;7.75;2.45;;;20.00;40.80;;;;;;5082408;28;20024;-68
2021/07/26 08:54:27;;;;;;;8.63;2.33;;;20.10;40.90;;;;;;5077665;28;20024;-68
2021/07/26 08:57:33;;;;;;;9.48;2.55;;;20.10;40.90;;;;;;5084748;28;20050;-69
2021/07/26 09:00:39;;;;;;;5.00;2.13;;;20.20;41.20;;;;;;5079815;28;20096;-68
2021/07/26 09:03:45;;;;;;;5.75;2.70;;;20.30;41.10;;;;;;5072739;28;20040;-68
2021/07/26 09:06:52;;;;;;;7.05;2.45;;;20.40;41.10;;;;;;5084819;28;20429;-68
2021/07/26 09:10:05;;;;;;;9.98;2.50;;;20.50;41.30;;;;;;5073957;28;20427;-68
2021/07/26 09:13:12;;;;;;;5.75;2.40;;;20.60;40.80;;;;;;5079468;28;20497;-68
2021/07/26 09:16:18;;;;;;;4.18;2.47;;;20.70;41.40;;;;;;5073900;28;20028;-68
2021/07/26 09:19:24;;;;;;;9.00;2.30;;;20.80;41.00;;;;;;5077333;28;20029;-68
2021/07/26 09:22:30;;;;;;;6.15;2.78;;;20.90;40.60;;;;;;5081554;28;20122;-68
2021/07/26 09:25:41;;;;;;;9.93;3.25;;;21.00;41.10;;;;;;5078694;28;20032;-67
2021/07/26 09:28:34;;;;;;;8.57;2.97;;;21.10;41.50;;;;;;5076618;28;20024;-68
2021/07/26 09:31:40;;;;;;;8.70;2.80;;;21.30;41.60;;;;;;5085852;28;20038;-68
2021/07/26 09:34:55;;;;;;;7.75;2.55;;;21.40;41.70;;;;;;5082669;28;20020;-69
2021/07/26 09:38:01;;;;;;;7.00;3.22;;;21.50;41.70;;;;;;5079558;28;20111;-68
2021/07/26 09:41:08;;;;;;;10.93;2.97;;;21.50;41.00;;;;;;5081845;28;20020;-69
2021/07/26 09:44:23;;;;;;;11.45;3.03;;;21.60;41.60;;;;;;5081768;28;20094;-68
2021/07/26 09:47:38;;;;;;;9.98;3.65;;;21.80;41.30;;;;;;5076708;28;20237;-68
2021/07/26 09:50:44;;;;;;;6.10;2.55;;;21.90;40.80;;;;;;5080214;28;20073;-68
2021/07/26 09:53:57;;;;;;;18.00;2.35;;;22.10;41.20;;;;;;5075960;28;20031;-68
2021/07/26 09:57:03;;;;;;;8.45;2.75;;;22.20;41.10;;;;;;5079215;28;20032;-68
2021/07/26 10:00:11;;;;;;;6.57;2.28;;;22.20;40.40;;;;;;5077588;28;20074;-68
2021/07/26 10:03:17;;;;;;;9.88;2.65;;;22.30;40.10;;;;;;5078895;28;20116;-69
2021/07/26 10:06:26;;;;;;;10.50;2.80;;;22.40;40.00;;;;;;5080872;28;20493;-68
2021/07/26 10:09:32;;;;;;;11.85;2.80;;;22.50;40.00;;;;;;5074306;28;20074;-69
2021/07/26 10:12:41;;;;;;;10.95;3.55;;;22.70;39.40;;;;;;5073883;28;20036;-68
2021/07/26 10:15:47;;;;;;;9.88;3.13;;;22.80;39.90;;;;;;5086879;28;20016;-68
2021/07/26 10:18:53;;;;;;;14.45;3.60;;;22.90;39.70;;;;;;5079829;28;20030;-68
2021/07/26 10:21:59;;;;;;;9.10;2.70;;;23.10;39.80;;;;;;5076103;28;20075;-68
2021/07/26 10:25:14;;;;;;;11.98;3.28;;;23.20;39.70;;;;;;5074378;28;20487;-69
2021/07/26 10:28:20;;;;;;;6.90;2.63;;;23.30;39.40;;;;;;5073549;28;20032;-68
2021/07/26 10:31:24;;;;;;;7.07;3.05;;;23.40;40.00;;;;;;5078696;28;20028;-69
2021/07/26 10:34:55;;;;;;;5.90;2.80;;;23.50;39.80;;;;;;5081861;28;20024;-69
2021/07/26 10:37:39;;;;;;;8.48;3.15;;;23.60;40.40;;;;;;5081635;28;20034;-69
2021/07/26 10:40:44;;;;;;;4.35;2.95;;;23.70;40.00;;;;;;5083923;28;20028;-69
2021/07/26 10:43:58;;;;;;;5.72;2.70;;;23.80;40.30;;;;;;5078185;28;20059;-68
2021/07/26 10:46:53;;;;;;;6.55;3.03;;;23.80;39.90;;;;;;5069933;28;20766;-68
2021/07/26 10:49:42;;;;;;;6.13;2.50;;;23.90;39.80;;;;;;5081059;28;20024;-69
2021/07/26 10:52:29;;;;;;;8.82;2.55;;;24.00;40.90;;;;;;5080053;28;20020;-68
2021/07/26 10:55:47;;;;;;;8.60;2.90;;;24.10;39.90;;;;;;5074008;28;20482;-69
2021/07/26 10:58:39;;;;;;;11.43;4.10;;;24.20;40.50;;;;;;5072024;28;20050;-69
2021/07/26 11:01:28;;;;;;;16.13;3.30;;;24.30;39.70;;;;;;5079803;28;20028;-68
2021/07/26 11:04:53;;;;;;;11.38;3.60;;;24.40;38.80;;;;;;5063625;28;20078;-68
2021/07/26 11:08:08;;;;;;;12.45;3.15;;;24.50;39.00;;;;;;5073457;28;20029;-69
2021/07/26 11:11:23;;;;;;;10.20;3.40;;;24.60;39.30;;;;;;5075336;28;20145;-68
2021/07/26 11:13:49;;;;;;;12.35;3.00;;;24.80;38.10;;;;;;5079107;28;20024;-69
2021/07/26 11:16:58;;;;;;;16.55;2.75;;;24.90;35.50;;;;;;5081399;28;20032;-69
2021/07/26 11:20:10;;;;;;;10.75;3.45;;;25.00;33.80;;;;;;5077228;28;20021;-67
2021/07/26 11:23:00;;;;;;;10.70;3.22;;;25.10;33.40;;;;;;5081794;28;20059;-68
2021/07/26 11:26:06;;;;;;;9.52;3.88;;;25.20;33.10;;;;;;5078550;28;20028;-69
2021/07/26 11:29:15;;;;;;;9.90;3.67;;;25.20;32.60;;;;;;5077502;28;20544;-69
2021/07/26 11:32:21;;;;;;;9.93;2.88;;;25.30;32.20;;;;;;5079469;28;20032;-68
2021/07/26 11:35:27;;;;;;;9.60;3.15;;;25.30;32.10;;;;;;5073802;28;20056;-69
2021/07/26 11:38:13;;;;;;;;;;;25.40;32.50;;;;;;5079774;28;20035;-70
2021/07/26 11:41:20;;;;;;;21.25;3.67;;;25.50;33.00;;;;;;5083307;28;19908;-70
2021/07/26 11:44:26;;;;;;;11.65;3.17;;;25.60;31.60;;;;;;5086846;28;20020;-68
2021/07/26 11:47:32;;;;;;;13.45;4.05;;;25.80;31.90;;;;;;5081546;28;20375;-70
2021/07/26 11:50:20;;;;;;;;;;;25.80;32.50;;;;;;5086795;28;20032;-69
2021/07/26 11:53:34;;;;;;;6.30;2.83;;;25.90;32.00;;;;;;5080609;28;19999;-69
2021/07/26 11:56:40;;;;;;;6.20;2.78;;;25.90;31.90;;;;;;5084086;28;20039;-69
2021/07/26 11:59:55;;;;;;;7.63;3.08;;;26.00;32.00;;;;;;5087285;28;20028;-68
2021/07/26 12:02:50;;;;;;;12.68;3.72;;;26.00;31.50;;;;;;5081665;28;20043;-69
2021/07/26 12:05:56;;;;;;;9.55;3.03;;;26.00;31.50;;;;;;5077960;28;20177;-69
2021/07/26 12:08:42;;;;;;;;;;;26.20;31.80;;;;;;5085966;28;20410;-69
2021/07/26 12:11:58;;;;;;;14.75;3.95;;;26.20;31.20;;;;;;5084824;28;19912;-69
2021/07/26 12:15:04;;;;;;;7.95;3.50;;;26.20;31.40;;;;;;5081732;28;20302;-69
2021/07/26 12:17:49;;;;;;;;;;;26.30;31.50;;;;;;5081749;28;20115;-69
2021/07/26 12:20:58;;;;;;;10.40;3.40;;;26.30;32.20;;;;;;5083829;28;19908;-68
2021/07/26 12:24:05;;;;;;;10.00;3.88;;;26.40;32.70;;;;;;5081313;28;20043;-68
2021/07/26 12:26:50;;;;;;;;;;;26.40;31.50;;;;;;5082526;28;20127;-68
2021/07/26 12:29:56;;;;;;;10.00;3.35;;;26.50;31.70;;;;;;5082177;28;19908;-69
2021/07/26 12:32:42;;;;;;;;;;;26.50;32.00;;;;;;5078021;28;20466;-68
2021/07/26 12:35:51;;;;;;;13.30;3.15;;;26.60;31.40;;;;;;5085285;28;19914;-68
2021/07/26 12:38:58;;;;;;;12.98;3.13;;;26.50;32.20;;;;;;5079479;28;20032;-68
2021/07/26 12:41:49;;;;;;;;;;;26.60;31.30;;;;;;5080287;28;20493;-68
2021/07/26 12:44:56;;;;;;;15.10;3.42;;;26.50;31.30;;;;;;5080548;28;20344;-68
2021/07/26 12:47:44;;;;;;;;;;;26.50;32.10;;;;;;5087007;28;20028;-68
2021/07/26 12:50:50;;;;;;;11.48;3.67;;;26.50;31.70;;;;;;5083516;28;19954;-68
2021/07/26 12:53:36;;;;;;;;;;;26.50;31.70;;;;;;5077787;28;20024;-69
2021/07/26 12:56:42;;;;;;;15.02;3.20;;;26.50;31.80;;;;;;5078288;28;19915;-68
2021/07/26 12:59:28;;;;;;;;;;;26.50;34.80;;;;;;5079914;28;20040;-68
2021/07/26 13:02:35;;;;;;;7.63;3.03;;;26.50;36.70;;;;;;5081893;28;19926;-68
2021/07/26 13:05:41;;;;;;;13.65;3.55;;;26.50;37.10;;;;;;5072890;28;20037;-68
2021/07/26 13:08:27;;;;;;;;;;;26.50;30.80;;;;;;5080538;28;20020;-69
2021/07/26 13:11:33;;;;;;;15.25;4.65;;;26.50;30.20;;;;;;5078460;28;19992;-68
2021/07/26 13:14:19;;;;;;;;;;;26.50;29.70;;;;;;5082853;28;20035;-69
2021/07/26 13:17:25;;;;;;;12.10;3.33;;;26.50;32.20;;;;;;5076252;28;19915;-68
2021/07/26 13:20:11;;;;;;;;;;;26.50;34.70;;;;;;5085262;28;20029;-68
2021/07/26 13:23:17;;;;;;;5.38;3.63;;;26.50;37.50;;;;;;5078799;28;19909;-68
2021/07/26 13:26:03;;;;;;;;;;;26.40;37.60;;;;;;5080200;28;20027;-68
2021/07/26 13:29:09;;;;;;;11.30;3.08;;;26.40;38.20;;;;;;5080217;28;19907;-68
2021/07/26 13:32:15;;;;;;;13.77;3.38;;;26.20;38.60;;;;;;5078979;28;20031;-68
2021/07/26 13:35:01;;;;;;;;;;;26.20;38.60;;;;;;5083369;28;20102;-68
2021/07/26 13:38:07;;;;;;;8.93;3.05;;;26.10;38.80;;;;;;5074504;28;19908;-68
2021/07/26 13:41:13;;;;;;;9.40;3.72;;;26.10;39.40;;;;;;5076442;28;20028;-68
2021/07/26 13:43:59;;;;;;;;;;;26.00;39.20;;;;;;5079662;28;20054;-68
2021/07/26 13:47:05;;;;;;;6.38;3.00;;;26.00;39.40;;;;;;5082164;28;19908;-68
2021/07/26 13:50:14;;;;;;;7.63;2.92;;;25.90;39.90;;;;;;5072688;28;20036;-68
2021/07/26 13:53:20;;;;;;;11.73;3.10;;;25.90;39.80;;;;;;5075156;28;20071;-68
2021/07/26 13:56:06;;;;;;;;;;;25.80;40.20;;;;;;5082056;28;20031;-68